sensor_id;sensor_type;location;lat;lon;timestamp;pressure;altitude;pressure_sealevel;temperature;humidity
55187;BME280;55457;52.002;5.464;2023-02-16T00:01:12;102157.56;;;22.27;38.88
55187;BME280;55457;52.002;5.464;2023-02-16T00:03:38;102150.47;;;22.26;38.53
55187;BME280;55457;52.002;5.464;2023-02-16T00:06:03;102142.56;;;22.24;38.86
55187;BME280;55457;52.002;5.464;2023-02-16T00:08:29;102148.81;;;22.25;38.86
55187;BME280;55457;52.002;5.464;2023-02-16T00:10:54;102149.84;;;22.24;38.55
55187;BME280;55457;52.002;5.464;2023-02-16T00:13:38;102149.03;;;22.23;38.55
55187;BME280;55457;52.002;5.464;2023-02-16T00:16:16;102145.72;;;22.21;38.53
55187;BME280;55457;52.002;5.464;2023-02-16T00:18:42;102155.53;;;22.22;38.71
55187;BME280;55457;52.002;5.464;2023-02-16T00:21:07;102153.03;;;22.21;38.65
55187;BME280;55457;52.002;5.464;2023-02-16T00:23:32;102142.19;;;22.21;38.54
55187;BME280;55457;52.002;5.464;2023-02-16T00:25:58;102144.88;;;22.21;38.47
55187;BME280;55457;52.002;5.464;2023-02-16T00:28:23;102145.94;;;22.20;38.52
55187;BME280;55457;52.002;5.464;2023-02-16T00:30:48;102150.56;;;22.19;38.55
55187;BME280;55457;52.002;5.464;2023-02-16T00:33:18;102147.00;;;22.19;38.76
55187;BME280;55457;52.002;5.464;2023-02-16T00:35:44;102155.16;;;22.19;38.48
55187;BME280;55457;52.002;5.464;2023-02-16T00:38:09;102141.59;;;22.19;38.49
55187;BME280;55457;52.002;5.464;2023-02-16T00:40:35;102139.06;;;22.17;38.81
55187;BME280;55457;52.002;5.464;2023-02-16T00:43:00;102141.78;;;22.17;38.46
55187;BME280;55457;52.002;5.464;2023-02-16T00:45:25;102141.78;;;22.17;38.53
55187;BME280;55457;52.002;5.464;2023-02-16T00:47:51;102131.75;;;22.18;38.44
55187;BME280;55457;52.002;5.464;2023-02-16T00:50:27;102139.31;;;22.16;38.44
55187;BME280;55457;52.002;5.464;2023-02-16T00:52:52;102136.59;;;22.16;38.77
55187;BME280;55457;52.002;5.464;2023-02-16T00:55:18;102142.03;;;22.16;38.74
55187;BME280;55457;52.002;5.464;2023-02-16T00:57:54;102133.03;;;22.15;38.76
55187;BME280;55457;52.002;5.464;2023-02-16T01:00:24;102138.47;;;22.15;38.56
55187;BME280;55457;52.002;5.464;2023-02-16T01:02:51;102132.22;;;22.14;38.58
55187;BME280;55457;52.002;5.464;2023-02-16T01:05:17;102134.09;;;22.14;38.50
55187;BME280;55457;52.002;5.464;2023-02-16T01:07:43;102124.06;;;22.14;38.59
55187;BME280;55457;52.002;5.464;2023-02-16T01:10:27;102122.41;;;22.13;38.86
55187;BME280;55457;52.002;5.464;2023-02-16T01:13:11;102128.88;;;22.12;38.56
55187;BME280;55457;52.002;5.464;2023-02-16T01:15:36;102127.84;;;22.13;38.58
55187;BME280;55457;52.002;5.464;2023-02-16T01:18:03;102134.31;;;22.12;38.66
55187;BME280;55457;52.002;5.464;2023-02-16T01:20:28;102134.31;;;22.12;38.58
55187;BME280;55457;52.002;5.464;2023-02-16T01:22:53;102126.41;;;22.11;38.79
55187;BME280;55457;52.002;5.464;2023-02-16T01:25:19;102121.78;;;22.11;38.69
55187;BME280;55457;52.002;5.464;2023-02-16T01:27:44;102116.38;;;22.11;38.74
55187;BME280;55457;52.002;5.464;2023-02-16T01:30:11;102118.25;;;22.11;38.51
55187;BME280;55457;52.002;5.464;2023-02-16T01:32:37;102116.38;;;22.11;38.66
55187;BME280;55457;52.002;5.464;2023-02-16T01:35:02;102114.72;;;22.10;38.53
55187;BME280;55457;52.002;5.464;2023-02-16T01:37:27;102112.81;;;22.11;38.54
55187;BME280;55457;52.002;5.464;2023-02-16T01:39:52;102109.28;;;22.10;38.63
55187;BME280;55457;52.002;5.464;2023-02-16T01:42:34;102106.75;;;22.09;38.68
55187;BME280;55457;52.002;5.464;2023-02-16T01:45:02;102106.75;;;22.09;38.59
55187;BME280;55457;52.002;5.464;2023-02-16T01:49:53;102105.94;;;22.08;38.66
55187;BME280;55457;52.002;5.464;2023-02-16T01:52:40;102104.25;;;22.07;38.55
55187;BME280;55457;52.002;5.464;2023-02-16T01:55:09;102094.22;;;22.08;38.88
55187;BME280;55457;52.002;5.464;2023-02-16T01:57:57;102102.59;;;22.06;38.54
55187;BME280;55457;52.002;5.464;2023-02-16T02:02:52;102084.66;;;22.05;38.63
55187;BME280;55457;52.002;5.464;2023-02-16T02:05:26;102085.47;;;22.06;38.86
55187;BME280;55457;52.002;5.464;2023-02-16T02:10:48;102072.97;;;22.05;38.61
55187;BME280;55457;52.002;5.464;2023-02-16T02:13:25;102087.59;;;22.04;38.54
55187;BME280;55457;52.002;5.464;2023-02-16T02:15:52;102083.00;;;22.04;38.67
55187;BME280;55457;52.002;5.464;2023-02-16T02:18:18;102073.78;;;22.05;38.84
55187;BME280;55457;52.002;5.464;2023-02-16T02:34:15;102068.81;;;22.02;38.70
55187;BME280;55457;52.002;5.464;2023-02-16T02:36:50;102066.09;;;22.02;38.74
55187;BME280;55457;52.002;5.464;2023-02-16T02:44:30;102062.34;;;22.03;38.41
55187;BME280;55457;52.002;5.464;2023-02-16T02:46:57;102061.28;;;22.04;38.67
55187;BME280;55457;52.002;5.464;2023-02-16T02:49:22;102061.28;;;22.04;38.60
55187;BME280;55457;52.002;5.464;2023-02-16T02:51:48;102059.63;;;22.03;38.60
55187;BME280;55457;52.002;5.464;2023-02-16T02:59:50;102052.06;;;22.05;38.46
55187;BME280;55457;52.002;5.464;2023-02-16T03:02:35;102047.47;;;22.06;38.44
55187;BME280;55457;52.002;5.464;2023-02-16T03:05:02;102038.50;;;22.05;38.48
55187;BME280;55457;52.002;5.464;2023-02-16T03:07:30;102042.88;;;22.06;38.43
55187;BME280;55457;52.002;5.464;2023-02-16T03:10:18;102033.06;;;22.05;38.57
55187;BME280;55457;52.002;5.464;2023-02-16T03:13:03;102042.88;;;22.06;38.58
55187;BME280;55457;52.002;5.464;2023-02-16T03:15:29;102034.97;;;22.05;38.29
55187;BME280;55457;52.002;5.464;2023-02-16T03:17:55;102023.28;;;22.04;38.42
55187;BME280;55457;52.002;5.464;2023-02-16T03:20:40;102026.81;;;22.05;38.43
55187;BME280;55457;52.002;5.464;2023-02-16T03:23:25;102024.09;;;22.05;38.37
55187;BME280;55457;52.002;5.464;2023-02-16T03:26:09;102026.00;;;22.04;38.53
55187;BME280;55457;52.002;5.464;2023-02-16T03:28:53;102019.50;;;22.05;38.27
55187;BME280;55457;52.002;5.464;2023-02-16T03:31:38;102024.94;;;22.05;38.35
55187;BME280;55457;52.002;5.464;2023-02-16T03:34:04;102017.84;;;22.04;38.55
55187;BME280;55457;52.002;5.464;2023-02-16T03:36:30;102026.00;;;22.04;38.35
55187;BME280;55457;52.002;5.464;2023-02-16T03:38:56;102024.34;;;22.03;38.41
55187;BME280;55457;52.002;5.464;2023-02-16T03:41:23;102019.75;;;22.04;38.41
55187;BME280;55457;52.002;5.464;2023-02-16T03:43:48;102028.72;;;22.04;38.48
55187;BME280;55457;52.002;5.464;2023-02-16T03:46:14;102024.34;;;22.03;38.40
55187;BME280;55457;52.002;5.464;2023-02-16T03:48:39;102021.84;;;22.02;38.45
55187;BME280;55457;52.002;5.464;2023-02-16T03:51:04;102035.41;;;22.02;38.45
55187;BME280;55457;52.002;5.464;2023-02-16T03:53:29;102038.94;;;22.02;38.47
55187;BME280;55457;52.002;5.464;2023-02-16T03:55:54;102036.22;;;22.02;38.52
55187;BME280;55457;52.002;5.464;2023-02-16T03:58:21;102042.50;;;22.03;38.38
55187;BME280;55457;52.002;5.464;2023-02-16T04:00:47;102047.09;;;22.02;38.61
55187;BME280;55457;52.002;5.464;2023-02-16T04:03:13;102049.81;;;22.02;38.48
55187;BME280;55457;52.002;5.464;2023-02-16T04:05:38;102045.44;;;22.01;38.39
55187;BME280;55457;52.002;5.464;2023-02-16T04:08:04;102050.88;;;22.01;38.37
55187;BME280;55457;52.002;5.464;2023-02-16T04:10:30;102044.59;;;22.01;38.48
55187;BME280;55457;52.002;5.464;2023-02-16T04:12:55;102038.34;;;22.00;38.39
55187;BME280;55457;52.002;5.464;2023-02-16T04:15:22;102041.91;;;22.01;38.50
55187;BME280;55457;52.002;5.464;2023-02-16T04:17:48;102037.28;;;22.01;38.51
55187;BME280;55457;52.002;5.464;2023-02-16T04:20:16;102046.50;;;22.00;38.63
55187;BME280;55457;52.002;5.464;2023-02-16T04:22:41;102035.41;;;22.02;38.37
55187;BME280;55457;52.002;5.464;2023-02-16T04:25:07;102032.69;;;22.02;38.62
55187;BME280;55457;52.002;5.464;2023-02-16T04:27:32;102030.81;;;22.02;38.42
55187;BME280;55457;52.002;5.464;2023-02-16T04:29:58;102037.28;;;22.01;38.28
55187;BME280;55457;52.002;5.464;2023-02-16T04:32:23;102029.16;;;22.01;38.29
55187;BME280;55457;52.002;5.464;2023-02-16T04:34:48;102029.16;;;22.01;38.22
55187;BME280;55457;52.002;5.464;2023-02-16T04:37:13;102040.00;;;22.01;38.38
55187;BME280;55457;52.002;5.464;2023-02-16T04:39:39;102037.28;;;22.01;38.42
55187;BME280;55457;52.002;5.464;2023-02-16T04:42:04;102040.00;;;22.01;38.52
55187;BME280;55457;52.002;5.464;2023-02-16T04:44:29;102033.50;;;22.02;38.55
55187;BME280;55457;52.002;5.464;2023-02-16T04:46:54;102030.81;;;22.02;38.34
55187;BME280;55457;52.002;5.464;2023-02-16T04:49:20;102036.22;;;22.02;38.61
55187;BME280;55457;52.002;5.464;2023-02-16T04:51:45;102035.19;;;22.03;38.47
55187;BME280;55457;52.002;5.464;2023-02-16T04:54:10;102037.91;;;22.03;38.45
55187;BME280;55457;52.002;5.464;2023-02-16T04:56:35;102025.38;;;22.02;38.45
55187;BME280;55457;52.002;5.464;2023-02-16T04:59:01;102032.50;;;22.03;38.58
55187;BME280;55457;52.002;5.464;2023-02-16T05:01:26;102031.63;;;22.03;38.58
55187;BME280;55457;52.002;5.464;2023-02-16T05:03:52;102035.19;;;22.03;38.44
55187;BME280;55457;52.002;5.464;2023-02-16T05:06:17;102031.63;;;22.03;38.50
55187;BME280;55457;52.002;5.464;2023-02-16T05:08:44;102036.22;;;22.02;38.56
55187;BME280;55457;52.002;5.464;2023-02-16T05:11:09;102018.28;;;22.01;38.52
55187;BME280;55457;52.002;5.464;2023-02-16T05:13:55;102011.81;;;22.02;38.62
55187;BME280;55457;52.002;5.464;2023-02-16T05:16:39;102014.50;;;22.02;38.45
55187;BME280;55457;52.002;5.464;2023-02-16T05:19:04;102010.78;;;22.03;38.49
55187;BME280;55457;52.002;5.464;2023-02-16T05:21:29;102007.44;;;22.01;38.70
55187;BME280;55457;52.002;5.464;2023-02-16T05:23:54;102009.09;;;22.02;38.58
55187;BME280;55457;52.002;5.464;2023-02-16T05:26:19;102002.00;;;22.01;38.62
55187;BME280;55457;52.002;5.464;2023-02-16T05:28:44;102009.31;;;22.01;38.58
55187;BME280;55457;52.002;5.464;2023-02-16T05:31:10;102007.44;;;22.01;38.45
55187;BME280;55457;52.002;5.464;2023-02-16T05:33:35;102006.59;;;22.01;38.58
55187;BME280;55457;52.002;5.464;2023-02-16T05:36:00;102007.44;;;22.01;38.48
55187;BME280;55457;52.002;5.464;2023-02-16T05:38:25;102019.13;;;22.02;38.41
55187;BME280;55457;52.002;5.464;2023-02-16T05:40:51;102013.94;;;22.00;38.70
55187;BME280;55457;52.002;5.464;2023-02-16T05:43:16;102017.47;;;22.01;38.59
55187;BME280;55457;52.002;5.464;2023-02-16T05:45:41;102006.84;;;21.99;38.73
55187;BME280;55457;52.002;5.464;2023-02-16T05:48:06;102004.72;;;22.01;38.61
55187;BME280;55457;52.002;5.464;2023-02-16T05:50:31;102003.06;;;22.00;38.37
55187;BME280;55457;52.002;5.464;2023-02-16T05:52:57;102005.78;;;22.00;38.49
55187;BME280;55457;52.002;5.464;2023-02-16T05:55:22;101996.81;;;22.00;38.66
55187;BME280;55457;52.002;5.464;2023-02-16T05:57:47;102004.13;;;21.99;38.51
55187;BME280;55457;52.002;5.464;2023-02-16T06:00:12;102016.63;;;22.00;38.49
55187;BME280;55457;52.002;5.464;2023-02-16T06:02:38;101998.69;;;21.99;38.49
55187;BME280;55457;52.002;5.464;2023-02-16T06:05:03;102009.56;;;21.99;38.57
55187;BME280;55457;52.002;5.464;2023-02-16T06:07:28;102002.47;;;21.98;38.39
55187;BME280;55457;52.002;5.464;2023-02-16T06:09:53;102004.13;;;21.99;38.62
55187;BME280;55457;52.002;5.464;2023-02-16T06:12:19;102005.19;;;21.98;38.57
55187;BME280;55457;52.002;5.464;2023-02-16T06:14:44;102007.91;;;21.98;38.43
55187;BME280;55457;52.002;5.464;2023-02-16T06:17:09;102001.63;;;21.98;38.65
55187;BME280;55457;52.002;5.464;2023-02-16T06:19:34;102003.50;;;21.97;38.46
55187;BME280;55457;52.002;5.464;2023-02-16T06:21:59;102007.91;;;21.98;38.57
55187;BME280;55457;52.002;5.464;2023-02-16T06:24:25;102004.34;;;21.98;38.32
55187;BME280;55457;52.002;5.464;2023-02-16T06:26:50;102014.38;;;21.97;38.67
55187;BME280;55457;52.002;5.464;2023-02-16T06:29:15;102014.38;;;21.97;38.39
55187;BME280;55457;52.002;5.464;2023-02-16T06:31:40;102006.22;;;21.97;38.57
55187;BME280;55457;52.002;5.464;2023-02-16T06:34:06;102022.50;;;21.97;38.59
55187;BME280;55457;52.002;5.464;2023-02-16T06:36:31;102011.88;;;21.96;38.59
55187;BME280;55457;52.002;5.464;2023-02-16T06:38:56;102016.25;;;21.97;38.79
55187;BME280;55457;52.002;5.464;2023-02-16T06:41:22;102023.56;;;21.96;38.58
55187;BME280;55457;52.002;5.464;2023-02-16T06:43:58;102021.09;;;21.95;38.59
55187;BME280;55457;52.002;5.464;2023-02-16T06:46:24;102018.13;;;21.96;38.43
55187;BME280;55457;52.002;5.464;2023-02-16T06:48:49;102016.47;;;21.95;38.39
55187;BME280;55457;52.002;5.464;2023-02-16T06:51:17;102013.78;;;21.95;38.69
55187;BME280;55457;52.002;5.464;2023-02-16T06:53:43;102007.50;;;21.95;38.47
55187;BME280;55457;52.002;5.464;2023-02-16T06:56:08;102010.22;;;21.95;38.65
55187;BME280;55457;52.002;5.464;2023-02-16T06:58:33;102019.19;;;21.95;38.35
55187;BME280;55457;52.002;5.464;2023-02-16T07:00:58;102015.91;;;21.93;38.45
55187;BME280;55457;52.002;5.464;2023-02-16T07:03:23;102024.88;;;21.94;38.43
55187;BME280;55457;52.002;5.464;2023-02-16T07:05:49;102021.31;;;21.93;38.41
55187;BME280;55457;52.002;5.464;2023-02-16T07:08:14;102022.97;;;21.94;38.61
55187;BME280;55457;52.002;5.464;2023-02-16T07:10:43;102025.06;;;21.92;38.55
55187;BME280;55457;52.002;5.464;2023-02-16T07:13:08;102021.31;;;21.93;38.52
55187;BME280;55457;52.002;5.464;2023-02-16T07:15:33;102025.91;;;21.93;38.47
55187;BME280;55457;52.002;5.464;2023-02-16T07:17:58;102032.19;;;21.93;38.55
55187;BME280;55457;52.002;5.464;2023-02-16T07:20:24;102027.78;;;21.92;38.46
55187;BME280;55457;52.002;5.464;2023-02-16T07:22:50;102024.25;;;21.92;38.53
55187;BME280;55457;52.002;5.464;2023-02-16T07:25:15;102025.91;;;21.93;38.56
55187;BME280;55457;52.002;5.464;2023-02-16T07:27:41;102029.66;;;21.92;38.57
55187;BME280;55457;52.002;5.464;2023-02-16T07:30:06;102034.28;;;21.91;38.64
55187;BME280;55457;52.002;5.464;2023-02-16T07:32:32;102026.38;;;21.89;38.58
55187;BME280;55457;52.002;5.464;2023-02-16T07:34:58;102036.38;;;21.89;38.83
55187;BME280;55457;52.002;5.464;2023-02-16T07:37:23;102031.41;;;21.86;38.82
55187;BME280;55457;52.002;5.464;2023-02-16T07:39:49;102047.69;;;21.86;38.80
55187;BME280;55457;52.002;5.464;2023-02-16T07:42:14;102038.94;;;21.84;39.15
55187;BME280;55457;52.002;5.464;2023-02-16T07:44:39;102046.47;;;21.82;39.15
55187;BME280;55457;52.002;5.464;2023-02-16T07:47:04;102050.25;;;21.81;39.02
55187;BME280;55457;52.002;5.464;2023-02-16T07:49:30;102055.66;;;21.81;38.99
55187;BME280;55457;52.002;5.464;2023-02-16T07:51:55;102059.44;;;21.80;39.08
55187;BME280;55457;52.002;5.464;2023-02-16T07:54:20;102058.59;;;21.79;38.97
55187;BME280;55457;52.002;5.464;2023-02-16T07:56:45;102064.88;;;21.80;39.03
55187;BME280;55457;52.002;5.464;2023-02-16T07:59:11;102060.50;;;21.79;38.96
55187;BME280;55457;52.002;5.464;2023-02-16T08:01:36;102053.19;;;21.79;38.99
55187;BME280;55457;52.002;5.464;2023-02-16T08:04:01;102055.06;;;21.79;38.86
55187;BME280;55457;52.002;5.464;2023-02-16T08:06:26;102063.22;;;21.79;38.86
55187;BME280;55457;52.002;5.464;2023-02-16T08:08:52;102067.81;;;21.78;38.76
55187;BME280;55457;52.002;5.464;2023-02-16T08:11:18;102073.25;;;21.78;38.83
55187;BME280;55457;52.002;5.464;2023-02-16T08:13:44;102072.41;;;21.78;38.83
55187;BME280;55457;52.002;5.464;2023-02-16T08:16:10;102072.41;;;21.78;39.02
55187;BME280;55457;52.002;5.464;2023-02-16T08:18:37;102061.56;;;21.78;38.73
55187;BME280;55457;52.002;5.464;2023-02-16T08:21:09;102065.31;;;21.77;38.89
55187;BME280;55457;52.002;5.464;2023-02-16T08:23:42;102058.22;;;21.76;38.88
55187;BME280;55457;52.002;5.464;2023-02-16T08:26:10;102073.44;;;21.77;38.91
55187;BME280;55457;52.002;5.464;2023-02-16T08:28:36;102079.09;;;21.75;38.77
55187;BME280;55457;52.002;5.464;2023-02-16T08:31:10;102079.72;;;21.77;38.70
55187;BME280;55457;52.002;5.464;2023-02-16T08:33:35;102077.22;;;21.76;38.78
55187;BME280;55457;52.002;5.464;2023-02-16T08:36:02;102073.66;;;21.75;38.84
55187;BME280;55457;52.002;5.464;2023-02-16T08:38:28;102078.28;;;21.75;38.69
55187;BME280;55457;52.002;5.464;2023-02-16T08:40:56;102078.28;;;21.75;38.70
55187;BME280;55457;52.002;5.464;2023-02-16T08:43:21;102076.63;;;21.74;38.63
55187;BME280;55457;52.002;5.464;2023-02-16T08:45:47;102082.03;;;21.74;38.66
55187;BME280;55457;52.002;5.464;2023-02-16T08:48:12;102080.38;;;21.73;38.59
55187;BME280;55457;52.002;5.464;2023-02-16T08:50:41;102082.03;;;21.74;38.69
55187;BME280;55457;52.002;5.464;2023-02-16T08:53:06;102091.25;;;21.73;38.59
55187;BME280;55457;52.002;5.464;2023-02-16T08:55:32;102087.91;;;21.71;38.57
55187;BME280;55457;52.002;5.464;2023-02-16T08:57:57;102084.16;;;21.72;38.62
55187;BME280;55457;52.002;5.464;2023-02-16T09:00:24;102083.31;;;21.71;38.64
55187;BME280;55457;52.002;5.464;2023-02-16T09:02:58;102089.78;;;21.70;38.60
55187;BME280;55457;52.002;5.464;2023-02-16T09:05:24;102090.84;;;21.69;38.70
55187;BME280;55457;52.002;5.464;2023-02-16T09:07:49;102097.56;;;21.67;38.68
55187;BME280;55457;52.002;5.464;2023-02-16T09:10:16;102099.66;;;21.65;39.13
55187;BME280;55457;52.002;5.464;2023-02-16T09:12:42;102097.16;;;21.63;39.15
55187;BME280;55457;52.002;5.464;2023-02-16T09:15:07;102100.09;;;21.61;39.17
55187;BME280;55457;52.002;5.464;2023-02-16T09:17:33;102096.78;;;21.59;39.21
55187;BME280;55457;52.002;5.464;2023-02-16T09:20:04;102097.59;;;21.60;39.38
55187;BME280;55457;52.002;5.464;2023-02-16T09:22:29;102094.06;;;21.59;39.68
55187;BME280;55457;52.002;5.464;2023-02-16T09:24:54;102099.47;;;21.59;39.74
55187;BME280;55457;52.002;5.464;2023-02-16T09:27:19;102086.75;;;21.60;39.38
55187;BME280;55457;52.002;5.464;2023-02-16T09:29:45;102072.97;;;21.61;39.38
55187;BME280;55457;52.002;5.464;2023-02-16T09:32:10;102078.19;;;21.63;39.36
55187;BME280;55457;52.002;5.464;2023-02-16T09:34:35;102080.88;;;21.63;39.49
55187;BME280;55457;52.002;5.464;2023-02-16T09:37:01;102084.44;;;21.63;39.58
55187;BME280;55457;52.002;5.464;2023-02-16T09:39:26;102088.78;;;21.65;39.37
55187;BME280;55457;52.002;5.464;2023-02-16T09:42:01;102090.44;;;21.66;39.34
55187;BME280;55457;52.002;5.464;2023-02-16T09:44:32;102086.72;;;21.67;39.28
55187;BME280;55457;52.002;5.464;2023-02-16T09:47:00;102092.13;;;21.67;39.22
55187;BME280;55457;52.002;5.464;2023-02-16T09:49:31;102087.75;;;21.66;39.12
55187;BME280;55457;52.002;5.464;2023-02-16T09:52:03;102086.72;;;21.67;39.02
55187;BME280;55457;52.002;5.464;2023-02-16T09:57:13;102070.44;;;21.67;39.09
55187;BME280;55457;52.002;5.464;2023-02-16T10:09:53;102099.66;;;21.65;39.18
55187;BME280;55457;52.002;5.464;2023-02-16T10:12:31;102099.66;;;21.65;39.28
55187;BME280;55457;52.002;5.464;2023-02-16T10:15:40;102100.47;;;21.65;39.13
55187;BME280;55457;52.002;5.464;2023-02-16T10:18:21;102099.66;;;21.65;39.16
55187;BME280;55457;52.002;5.464;2023-02-16T10:20:39;102097.75;;;21.65;39.08
55187;BME280;55457;52.002;5.464;2023-02-16T10:23:25;102095.88;;;21.66;39.03
55187;BME280;55457;52.002;5.464;2023-02-16T10:25:56;102092.13;;;21.67;38.97
55187;BME280;55457;52.002;5.464;2023-02-16T10:30:52;102090.25;;;21.67;39.06
55187;BME280;55457;52.002;5.464;2023-02-16T10:33:25;102087.53;;;21.67;39.07
55187;BME280;55457;52.002;5.464;2023-02-16T10:35:59;102088.38;;;21.68;39.15
55187;BME280;55457;52.002;5.464;2023-02-16T10:38:30;102088.38;;;21.68;38.87
55187;BME280;55457;52.002;5.464;2023-02-16T10:41:02;102090.03;;;21.69;39.05
55187;BME280;55457;52.002;5.464;2023-02-16T10:46:01;102088.38;;;21.68;39.25
55187;BME280;55457;52.002;5.464;2023-02-16T10:48:27;102090.03;;;21.69;39.32
55187;BME280;55457;52.002;5.464;2023-02-16T10:55:59;102081.88;;;21.69;39.16
55187;BME280;55457;52.002;5.464;2023-02-16T10:58:37;102078.09;;;21.70;39.27
55187;BME280;55457;52.002;5.464;2023-02-16T11:01:09;102074.34;;;21.71;39.11
55187;BME280;55457;52.002;5.464;2023-02-16T11:03:39;102067.25;;;21.70;39.26
55187;BME280;55457;52.002;5.464;2023-02-16T11:06:18;102064.53;;;21.70;39.06
55187;BME280;55457;52.002;5.464;2023-02-16T11:08:47;102053.47;;;21.71;39.27
55187;BME280;55457;52.002;5.464;2023-02-16T11:11:13;102066.19;;;21.71;39.12
55187;BME280;55457;52.002;5.464;2023-02-16T11:13:40;102058.88;;;21.71;39.18
55187;BME280;55457;52.002;5.464;2023-02-16T11:16:10;102067.03;;;21.71;39.35
55187;BME280;55457;52.002;5.464;2023-02-16T11:18:39;102055.16;;;21.72;39.34
55187;BME280;55457;52.002;5.464;2023-02-16T11:21:06;102057.84;;;21.72;39.12
55187;BME280;55457;52.002;5.464;2023-02-16T11:23:33;102051.59;;;21.72;39.18
55187;BME280;55457;52.002;5.464;2023-02-16T11:28:38;102059.75;;;21.72;39.14
55187;BME280;55457;52.002;5.464;2023-02-16T11:31:11;102061.59;;;21.71;39.20
55187;BME280;55457;52.002;5.464;2023-02-16T11:33:37;102060.56;;;21.72;39.31
55187;BME280;55457;52.002;5.464;2023-02-16T11:36:27;102052.44;;;21.72;39.48
55187;BME280;55457;52.002;5.464;2023-02-16T11:38:57;102053.47;;;21.71;39.37
55187;BME280;55457;52.002;5.464;2023-02-16T11:41:23;102042.59;;;21.71;39.50
55187;BME280;55457;52.002;5.464;2023-02-16T11:43:49;102042.00;;;21.69;39.62
55187;BME280;55457;52.002;5.464;2023-02-16T11:46:15;102041.19;;;21.69;39.77
55187;BME280;55457;52.002;5.464;2023-02-16T11:48:42;102044.97;;;21.68;40.02
55187;BME280;55457;52.002;5.464;2023-02-16T11:51:08;102039.53;;;21.68;39.82
55187;BME280;55457;52.002;5.464;2023-02-16T11:53:34;102034.94;;;21.68;39.79
55187;BME280;55457;52.002;5.464;2023-02-16T11:58:38;102026.56;;;21.70;39.58
55187;BME280;55457;52.002;5.464;2023-02-16T12:11:11;102011.03;;;21.77;39.83
55187;BME280;55457;52.002;5.464;2023-02-16T12:24:11;101997.03;;;21.80;40.30
55187;BME280;55457;52.002;5.464;2023-02-16T12:29:29;101990.09;;;21.84;40.23
55187;BME280;55457;52.002;5.464;2023-02-16T12:45:09;101969.91;;;22.17;39.73
55187;BME280;55457;52.002;5.464;2023-02-16T12:47:39;101961.53;;;22.18;39.64
55187;BME280;55457;52.002;5.464;2023-02-16T12:50:27;101947.75;;;22.20;39.83
55187;BME280;55457;52.002;5.464;2023-02-16T12:52:56;101935.81;;;22.21;39.63
55187;BME280;55457;52.002;5.464;2023-02-16T12:58:30;101933.47;;;22.24;39.33
55187;BME280;55457;52.002;5.464;2023-02-16T13:00:57;101926.50;;;22.28;39.43
55187;BME280;55457;52.002;5.464;2023-02-16T13:03:39;101922.66;;;22.36;39.20
55187;BME280;55457;52.002;5.464;2023-02-16T13:08:47;101926.91;;;22.44;39.14
55187;BME280;55457;52.002;5.464;2023-02-16T13:13:40;101929.63;;;22.44;39.45
55187;BME280;55457;52.002;5.464;2023-02-16T13:18:36;101917.94;;;22.43;39.06
55187;BME280;55457;52.002;5.464;2023-02-16T13:26:34;101906.34;;;22.36;39.50
55187;BME280;55457;52.002;5.464;2023-02-16T13:29:07;101915.91;;;22.38;39.28
55187;BME280;55457;52.002;5.464;2023-02-16T13:31:48;101911.31;;;22.39;39.20
55187;BME280;55457;52.002;5.464;2023-02-16T13:36:48;101895.00;;;22.39;39.29
55187;BME280;55457;52.002;5.464;2023-02-16T13:41:55;101885.00;;;22.39;39.21
55187;BME280;55457;52.002;5.464;2023-02-16T13:44:27;101887.72;;;22.39;39.40
55187;BME280;55457;52.002;5.464;2023-02-16T13:46:55;101873.66;;;22.43;39.04
55187;BME280;55457;52.002;5.464;2023-02-16T13:51:55;101860.31;;;22.41;38.99
55187;BME280;55457;52.002;5.464;2023-02-16T13:54:22;101857.22;;;22.37;39.31
55187;BME280;55457;52.002;5.464;2023-02-16T13:56:50;101858.28;;;22.36;39.08
55187;BME280;55457;52.002;5.464;2023-02-16T14:01:41;101861.25;;;22.35;39.50
55187;BME280;55457;52.002;5.464;2023-02-16T14:04:11;101856.84;;;22.34;39.40
55187;BME280;55457;52.002;5.464;2023-02-16T14:06:38;101852.72;;;22.31;39.23
55187;BME280;55457;52.002;5.464;2023-02-16T14:22:20;101851.06;;;22.19;39.17
55187;BME280;55457;52.002;5.464;2023-02-16T14:24:50;101847.72;;;22.17;39.09
55187;BME280;55457;52.002;5.464;2023-02-16T14:27:37;101841.72;;;22.14;39.26
55187;BME280;55457;52.002;5.464;2023-02-16T14:30:02;101837.34;;;22.13;39.17
55187;BME280;55457;52.002;5.464;2023-02-16T14:32:29;101834.63;;;22.13;39.36
55187;BME280;55457;52.002;5.464;2023-02-16T14:35:03;101826.94;;;22.10;39.31
55187;BME280;55457;52.002;5.464;2023-02-16T14:37:31;101832.38;;;22.10;39.06
55187;BME280;55457;52.002;5.464;2023-02-16T14:40:03;101834.47;;;22.08;39.18
55187;BME280;55457;52.002;5.464;2023-02-16T14:42:35;101824.06;;;22.05;39.49
55187;BME280;55457;52.002;5.464;2023-02-16T14:45:10;101829.47;;;22.05;39.54
55187;BME280;55457;52.002;5.464;2023-02-16T14:50:30;101836.44;;;22.01;39.19
55187;BME280;55457;52.002;5.464;2023-02-16T14:58:29;101828.97;;;21.97;39.27
55187;BME280;55457;52.002;5.464;2023-02-16T15:03:22;101824.03;;;21.94;39.63
55187;BME280;55457;52.002;5.464;2023-02-16T15:05:52;101830.50;;;21.93;39.56
55187;BME280;55457;52.002;5.464;2023-02-16T15:08:21;101835.94;;;21.93;39.51
55187;BME280;55457;52.002;5.464;2023-02-16T15:10:48;101829.06;;;21.90;39.21
55187;BME280;55457;52.002;5.464;2023-02-16T15:13:36;101830.13;;;21.89;39.24
55187;BME280;55457;52.002;5.464;2023-02-16T15:16:02;101837.66;;;21.87;39.17
55187;BME280;55457;52.002;5.464;2023-02-16T15:18:28;101839.78;;;21.85;39.35
55187;BME280;55457;52.002;5.464;2023-02-16T15:20:56;101839.78;;;21.85;39.45
55187;BME280;55457;52.002;5.464;2023-02-16T15:23:23;101831.06;;;21.83;39.45